createdAt,value
2022-07-29T00:00:18.539Z,520.5
2022-07-29T00:01:21.150Z,520.1
2022-07-29T00:02:23.992Z,520.1
2022-07-29T00:03:26.828Z,520.3
2022-07-29T00:04:29.997Z,520.2
2022-07-29T00:05:32.772Z,520.1
2022-07-29T00:06:35.451Z,520.1
2022-07-29T00:07:38.118Z,520.1
2022-07-29T00:08:40.780Z,520.2
2022-07-29T00:09:53.105Z,520
2022-07-29T00:10:55.064Z,519.5
2022-07-29T00:11:56.902Z,519.7
2022-07-29T00:12:58.753Z,519.5
2022-07-29T00:14:00.602Z,519.4
2022-07-29T00:15:02.663Z,519.4
2022-07-29T00:16:06.067Z,518.9
2022-07-29T00:17:07.893Z,519.4
2022-07-29T00:18:10.974Z,519.2
2022-07-29T00:19:15.692Z,518.9
2022-07-29T00:20:17.531Z,519.4
2022-07-29T00:21:22.248Z,518.9
2022-07-29T00:22:24.095Z,518.5
2022-07-29T00:23:25.947Z,518.2
2022-07-29T00:24:27.797Z,518.4
2022-07-29T00:25:29.647Z,518.3
2022-07-29T00:26:32.642Z,518.2
2022-07-29T00:27:34.576Z,518
2022-07-29T00:28:36.426Z,518.4
2022-07-29T00:29:38.278Z,518.4
2022-07-29T00:30:40.228Z,518.4
2022-07-29T00:31:42.421Z,518.3
2022-07-29T00:32:44.315Z,518.6
2022-07-29T00:33:46.187Z,518.3
2022-07-29T00:34:48.040Z,518.9
2022-07-29T00:35:49.886Z,519
2022-07-29T00:36:51.706Z,518.9
2022-07-29T00:37:53.586Z,519.3
2022-07-29T00:38:58.305Z,519.6
2022-07-29T00:40:00.156Z,519.7
2022-07-29T00:41:02.113Z,519.7
2022-07-29T00:42:03.959Z,519.8
2022-07-29T00:43:05.775Z,520.1
2022-07-29T00:44:07.759Z,519.8
2022-07-29T00:45:09.610Z,519.7
2022-07-29T00:46:11.664Z,519
2022-07-29T00:47:13.518Z,519.3
2022-07-29T00:48:15.363Z,518.9
2022-07-29T00:49:17.585Z,519.1
2022-07-29T00:50:19.473Z,519.3
2022-07-29T00:51:21.322Z,519
2022-07-29T00:52:23.173Z,518.9
2022-07-29T00:53:26.767Z,518.9
2022-07-29T00:54:29.175Z,518.9
2022-07-29T00:55:30.978Z,519.1
2022-07-29T00:56:32.826Z,519.2
2022-07-29T00:57:34.678Z,519
2022-07-29T00:58:36.541Z,518.9
2022-07-29T00:59:38.283Z,518.3
2022-07-29T01:00:40.365Z,518.6
2022-07-29T01:01:42.610Z,518.5
2022-07-29T01:02:44.463Z,518.4
2022-07-29T01:03:46.096Z,518.6
2022-07-29T01:04:47.731Z,518.7
2022-07-29T01:05:52.358Z,518.7
2022-07-29T01:06:54.087Z,519.2
2022-07-29T01:07:55.632Z,519.3
2022-07-29T01:08:57.179Z,519.3
2022-07-29T01:09:58.846Z,519.7
2022-07-29T01:11:00.386Z,520
2022-07-29T01:12:02.053Z,519.8
2022-07-29T01:13:08.969Z,520.3
2022-07-29T01:14:10.718Z,520.3
2022-07-29T01:15:12.265Z,520.6
2022-07-29T01:16:14.233Z,520.5
2022-07-29T01:17:16.009Z,520.4
2022-07-29T01:18:22.570Z,520.3
2022-07-29T01:19:25.731Z,520.5
2022-07-29T01:20:32.496Z,520.3
2022-07-29T01:21:34.336Z,520.2
2022-07-29T01:22:36.012Z,520.3
2022-07-29T01:23:37.545Z,520.4
2022-07-29T01:24:39.188Z,520.4
2022-07-29T01:25:40.805Z,520.2
2022-07-29T01:26:42.378Z,520.2
2022-07-29T01:27:46.127Z,520.3
2022-07-29T01:28:48.001Z,520.1
2022-07-29T01:29:50.347Z,520.4
2022-07-29T01:30:53.445Z,520
2022-07-29T01:32:01.755Z,519.9
2022-07-29T01:33:04.091Z,519.5
2022-07-29T01:34:05.826Z,520
2022-07-29T01:35:07.605Z,519.5
2022-07-29T01:36:09.168Z,519.6
2022-07-29T01:37:10.977Z,519.8
2022-07-29T01:38:12.629Z,519.7
2022-07-29T01:39:14.244Z,519.5
2022-07-29T01:40:15.782Z,519.8
2022-07-29T01:41:17.393Z,519.9
2022-07-29T01:42:19.036Z,520.1
2022-07-29T01:43:20.744Z,520.6
2022-07-29T01:44:22.327Z,520.6
2022-07-29T01:45:23.978Z,520.7
2022-07-29T01:46:26.124Z,520.9
2022-07-29T01:47:27.864Z,520.6
2022-07-29T01:48:29.463Z,520.7
2022-07-29T01:49:31.034Z,520.6
2022-07-29T01:50:32.678Z,520.6
2022-07-29T01:51:34.215Z,520.9
2022-07-29T01:52:35.898Z,521.1
2022-07-29T01:53:38.761Z,521.7
2022-07-29T01:54:40.362Z,521.6
2022-07-29T01:55:41.920Z,521.5
2022-07-29T01:56:43.464Z,521.5
2022-07-29T01:57:45.146Z,521.5
2022-07-29T01:58:46.791Z,521.6
2022-07-29T01:59:48.545Z,521.7
2022-07-29T02:00:50.163Z,521.5
2022-07-29T02:01:55.430Z,521.2
2022-07-29T02:02:57.163Z,521.5
2022-07-29T02:03:58.898Z,521.8
2022-07-29T02:05:01.022Z,521.7
2022-07-29T02:06:02.789Z,521.7
2022-07-29T02:07:04.422Z,521.7
2022-07-29T02:08:05.988Z,522
2022-07-29T02:09:09.004Z,522
2022-07-29T02:10:10.584Z,521.8
2022-07-29T02:11:12.268Z,522
2022-07-29T02:12:13.820Z,521.7
2022-07-29T02:13:15.409Z,522.2
2022-07-29T02:14:18.841Z,522.2
2022-07-29T02:15:20.587Z,522.6
2022-07-29T02:16:22.796Z,522.9
2022-07-29T02:17:24.454Z,522.9
2022-07-29T02:18:26.236Z,522.9
2022-07-29T02:19:27.782Z,522.8
2022-07-29T02:20:29.496Z,523
2022-07-29T02:21:31.040Z,522.9
2022-07-29T02:22:32.684Z,522.7
2022-07-29T02:23:52.357Z,523
2022-07-29T02:24:54.038Z,523.2
2022-07-29T02:25:55.642Z,522.8
2022-07-29T02:26:57.292Z,523
2022-07-29T02:27:58.930Z,522.8
2022-07-29T02:29:00.697Z,523.1
2022-07-29T02:30:02.441Z,522.6
2022-07-29T02:31:04.441Z,522.6
2022-07-29T02:32:06.167Z,522.6
2022-07-29T02:33:07.708Z,522.5
2022-07-29T02:34:09.345Z,522.3
2022-07-29T02:35:10.974Z,522.6
2022-07-29T02:36:12.708Z,522.9
2022-07-29T02:37:14.375Z,522.7
2022-07-29T02:38:16.109Z,522.5
2022-07-29T02:39:17.848Z,522.8
2022-07-29T02:40:20.317Z,522.9
2022-07-29T02:41:21.993Z,522.9
2022-07-29T02:42:23.642Z,522.7
2022-07-29T02:43:25.168Z,523
2022-07-29T02:44:35.186Z,523.1
2022-07-29T02:45:36.874Z,523.6
2022-07-29T02:46:38.797Z,523.5
2022-07-29T02:47:42.783Z,524
2022-07-29T02:48:44.758Z,524.1
2022-07-29T02:49:46.390Z,523.6
2022-07-29T02:50:48.188Z,523.7
2022-07-29T02:51:49.733Z,523.9
2022-07-29T02:52:54.901Z,523.9
2022-07-29T02:53:58.939Z,524.2
2022-07-29T02:55:00.581Z,524.4
2022-07-29T02:56:02.174Z,524.3
2022-07-29T02:57:03.720Z,524.2
2022-07-29T02:58:05.490Z,524.3
2022-07-29T02:59:07.127Z,524.1
2022-07-29T03:00:08.910Z,524.1
2022-07-29T03:01:10.946Z,523.9
2022-07-29T03:02:13.038Z,523.7
2022-07-29T03:03:14.761Z,523.5
2022-07-29T03:04:18.594Z,523.5
2022-07-29T03:05:20.412Z,522.9
2022-07-29T03:06:39.348Z,522.9
2022-07-29T03:07:40.895Z,523.2
2022-07-29T03:08:42.560Z,523.7
2022-07-29T03:09:44.159Z,523.6
2022-07-29T03:10:45.825Z,523.6
2022-07-29T03:11:51.583Z,523.8
2022-07-29T03:12:53.229Z,524
2022-07-29T03:13:55.146Z,523.5
2022-07-29T03:14:56.821Z,524
2022-07-29T03:15:58.993Z,523.9
2022-07-29T03:17:00.797Z,523.9
2022-07-29T03:18:02.482Z,523.9
2022-07-29T03:19:04.092Z,523.8
2022-07-29T03:20:05.629Z,523.7
2022-07-29T03:21:07.376Z,524
2022-07-29T03:22:08.999Z,523.9
2022-07-29T03:23:10.544Z,523.6
2022-07-29T03:24:12.193Z,523.7
2022-07-29T03:25:14.173Z,523.5
2022-07-29T03:26:15.777Z,523.2
2022-07-29T03:27:17.427Z,523.3
2022-07-29T03:28:19.650Z,523.1
2022-07-29T03:29:21.662Z,522.9
2022-07-29T03:30:23.648Z,523.1
2022-07-29T03:31:28.956Z,523.2
2022-07-29T03:32:31.294Z,523
2022-07-29T03:33:32.829Z,523.4
2022-07-29T03:34:34.482Z,523.1
2022-07-29T03:35:36.081Z,523.5
2022-07-29T03:36:37.632Z,523.5
2022-07-29T03:37:39.274Z,523.7
2022-07-29T03:38:40.897Z,523.3
2022-07-29T03:39:43.235Z,523.5
2022-07-29T03:40:44.880Z,523.6
2022-07-29T03:41:46.561Z,523.3
2022-07-29T03:42:48.205Z,523.6
2022-07-29T03:43:50.553Z,523.5
2022-07-29T03:44:52.115Z,523.3
2022-07-29T03:45:53.948Z,523
2022-07-29T03:46:55.617Z,522.9
2022-07-29T03:48:01.752Z,523
2022-07-29T03:49:03.812Z,522.6
2022-07-29T03:50:05.437Z,522.7
2022-07-29T03:51:12.393Z,522.8
2022-07-29T03:52:13.938Z,522.9
2022-07-29T03:53:15.620Z,522.6
2022-07-29T03:54:18.819Z,522.4
2022-07-29T03:55:20.725Z,522.3
2022-07-29T03:56:22.341Z,522.2
2022-07-29T03:57:24.049Z,522.1
2022-07-29T03:58:25.775Z,522
2022-07-29T03:59:27.397Z,522.2
2022-07-29T04:00:28.933Z,522.1
2022-07-29T04:01:30.968Z,522
2022-07-29T04:02:33.017Z,521.9
2022-07-29T04:03:35.136Z,521.9
2022-07-29T04:04:36.841Z,521.8
2022-07-29T04:05:38.436Z,521.6
2022-07-29T04:06:39.978Z,522
2022-07-29T04:07:41.705Z,522.1
2022-07-29T04:08:43.255Z,522.1
2022-07-29T04:10:45.966Z,522.5
2022-07-29T04:12:04.900Z,522.3
2022-07-29T04:13:06.462Z,522.5
2022-07-29T04:14:08.049Z,522.7
2022-07-29T04:15:09.648Z,522.3
2022-07-29T04:16:11.513Z,522.3
2022-07-29T04:17:13.109Z,522.4
2022-07-29T04:18:14.657Z,522.5
2022-07-29T04:19:16.202Z,522.7
2022-07-29T04:20:17.815Z,522.4
2022-07-29T04:21:19.421Z,522.2
2022-07-29T04:22:27.656Z,522.2
2022-07-29T04:23:29.321Z,522.2
2022-07-29T04:24:31.074Z,522.5
2022-07-29T04:25:32.915Z,522.3
2022-07-29T04:26:34.749Z,522.7
2022-07-29T04:27:36.329Z,522.7
2022-07-29T04:28:38.037Z,522.7
2022-07-29T04:29:58.115Z,522.6
2022-07-29T04:31:00.031Z,522.6
2022-07-29T04:32:01.757Z,522.2
2022-07-29T04:33:03.375Z,522.6
2022-07-29T04:34:05.023Z,522.5
2022-07-29T04:35:06.852Z,522.7
2022-07-29T04:36:30.435Z,522.6
2022-07-29T04:37:32.073Z,522.4
2022-07-29T04:38:33.611Z,522.5
2022-07-29T04:39:35.268Z,522.6
2022-07-29T04:40:40.585Z,522.2
2022-07-29T04:41:43.388Z,522.1
2022-07-29T04:42:49.730Z,521.9
2022-07-29T04:43:52.409Z,521.8
2022-07-29T04:44:53.943Z,521.7
2022-07-29T04:45:55.853Z,521.6
2022-07-29T04:46:57.551Z,521.6
2022-07-29T04:47:59.175Z,521.5
2022-07-29T04:49:01.380Z,521.2
2022-07-29T04:50:03.042Z,521.1
2022-07-29T04:51:04.718Z,521.5
2022-07-29T04:52:06.299Z,521.6
2022-07-29T04:53:07.933Z,521.2
2022-07-29T04:54:09.585Z,521.1
2022-07-29T04:55:11.327Z,521.3
2022-07-29T04:56:12.963Z,521.5
2022-07-29T04:57:14.577Z,520.9
2022-07-29T04:58:16.246Z,521.2
2022-07-29T04:59:17.779Z,520.9
2022-07-29T05:00:19.518Z,520.8
2022-07-29T05:01:21.635Z,521
2022-07-29T05:02:23.849Z,520.7
2022-07-29T05:03:25.605Z,520.7
2022-07-29T05:04:27.187Z,520.3
2022-07-29T05:05:28.782Z,520.4
2022-07-29T05:06:30.619Z,520.3
2022-07-29T05:07:32.361Z,520.6
2022-07-29T05:08:34.038Z,520.7
2022-07-29T05:09:35.581Z,520.5
2022-07-29T05:10:37.123Z,520.6
2022-07-29T05:11:38.873Z,520.7
2022-07-29T05:12:40.712Z,520.7
2022-07-29T05:13:47.776Z,520.5
2022-07-29T05:14:49.449Z,520.4
2022-07-29T05:15:51.585Z,520.5
2022-07-29T05:16:53.238Z,520.2
2022-07-29T05:17:54.906Z,520.2
2022-07-29T05:18:56.524Z,520
2022-07-29T05:19:58.172Z,519.9
2022-07-29T05:20:59.738Z,520
2022-07-29T05:22:01.309Z,520
2022-07-29T05:23:03.014Z,519.3
2022-07-29T05:24:04.657Z,519.7
2022-07-29T05:25:09.778Z,519.9
2022-07-29T05:26:11.512Z,519.8
2022-07-29T05:27:13.255Z,519.6
2022-07-29T05:28:14.887Z,519.5
2022-07-29T05:29:46.340Z,520
2022-07-29T05:30:48.525Z,519.5
2022-07-29T05:31:50.339Z,519.7
2022-07-29T05:32:51.889Z,519.6
2022-07-29T05:33:53.653Z,519.8
2022-07-29T05:34:55.294Z,519.6
2022-07-29T05:36:01.549Z,519.3
2022-07-29T05:37:03.216Z,519.6
2022-07-29T05:38:04.828Z,519.6
2022-07-29T05:39:06.382Z,519.7
2022-07-29T05:40:07.924Z,519.4
2022-07-29T05:41:09.564Z,519.6
2022-07-29T05:42:11.318Z,519.5
2022-07-29T05:43:13.065Z,519.3
2022-07-29T05:44:16.534Z,519.3
2022-07-29T05:45:18.591Z,519.3
2022-07-29T05:46:21.063Z,519.4
2022-07-29T05:47:22.805Z,519.5
2022-07-29T05:48:24.569Z,519.4
2022-07-29T05:49:28.291Z,519.6
2022-07-29T05:50:30.198Z,519.3
2022-07-29T05:51:31.912Z,519.4
2022-07-29T05:52:33.639Z,519.6
2022-07-29T05:53:35.310Z,519.4
2022-07-29T05:54:36.888Z,519.5
2022-07-29T05:55:39.874Z,519.3
2022-07-29T05:56:41.625Z,519.3
2022-07-29T05:57:43.205Z,519.5
2022-07-29T05:58:44.897Z,519
2022-07-29T05:59:46.738Z,519.3
2022-07-29T06:00:48.490Z,519.3
2022-07-29T06:01:50.381Z,519.4
2022-07-29T06:02:52.086Z,519.3
2022-07-29T06:03:53.968Z,519.4
2022-07-29T06:04:56.039Z,519.3
2022-07-29T06:05:57.715Z,519.3
2022-07-29T06:06:59.609Z,519.2
2022-07-29T06:08:01.346Z,518.9
2022-07-29T06:09:14.651Z,519.1
2022-07-29T06:10:16.200Z,518.9
2022-07-29T06:11:17.824Z,518.8
2022-07-29T06:12:19.364Z,518.8
2022-07-29T06:13:20.947Z,518.8
2022-07-29T06:14:22.793Z,518.5
2022-07-29T06:15:24.406Z,518.5
2022-07-29T06:16:31.125Z,518.6
2022-07-29T06:17:32.768Z,518.6
2022-07-29T06:18:34.346Z,518.4
2022-07-29T06:19:35.895Z,518.6
2022-07-29T06:20:37.674Z,518.6
2022-07-29T06:21:42.578Z,518.7
2022-07-29T06:22:44.141Z,518.6
2022-07-29T06:23:45.892Z,519
2022-07-29T06:24:47.438Z,518.8
2022-07-29T06:25:49.043Z,518.9
2022-07-29T06:26:50.832Z,519.1
2022-07-29T06:27:52.440Z,519.1
2022-07-29T06:28:53.987Z,518.9
2022-07-29T06:29:55.683Z,519
2022-07-29T06:30:57.609Z,518.8
2022-07-29T06:31:59.219Z,518.7
2022-07-29T06:33:00.890Z,518.6
2022-07-29T06:34:05.098Z,518.5
2022-07-29T06:35:53.749Z,518.9
2022-07-29T06:36:56.872Z,518.9
2022-07-29T06:38:00.904Z,519.1
2022-07-29T06:39:04.355Z,519.1
2022-07-29T06:40:05.985Z,519.2
2022-07-29T06:41:07.638Z,519.2
2022-07-29T06:42:09.282Z,519.4
2022-07-29T06:43:10.888Z,519.7
2022-07-29T06:44:13.270Z,519.5
2022-07-29T06:45:15.086Z,519.6
2022-07-29T06:46:17.080Z,519.4
2022-07-29T06:47:18.839Z,519.4
2022-07-29T06:48:20.470Z,519.4
2022-07-29T06:49:22.438Z,519.5
2022-07-29T06:50:25.452Z,519.6
2022-07-29T06:51:27.159Z,519.5
2022-07-29T06:52:28.787Z,519.7
2022-07-29T06:53:30.445Z,519.6
2022-07-29T06:54:32.045Z,519.6
2022-07-29T06:55:33.589Z,519.9
2022-07-29T06:56:40.894Z,519.8
2022-07-29T06:57:42.519Z,519.7
2022-07-29T06:58:44.090Z,520.2
2022-07-29T06:59:45.700Z,519.8
2022-07-29T07:00:47.691Z,520
2022-07-29T07:01:49.719Z,520.2
2022-07-29T07:02:51.933Z,520.4
2022-07-29T07:03:53.842Z,520.4
2022-07-29T07:04:55.509Z,520.4
2022-07-29T07:05:57.160Z,520.2
2022-07-29T07:06:58.693Z,520.2
2022-07-29T07:08:00.254Z,520.4
2022-07-29T07:09:01.880Z,520.8
2022-07-29T07:10:03.620Z,520.2
2022-07-29T07:11:05.182Z,520.4
2022-07-29T07:12:06.990Z,520.3
2022-07-29T07:13:08.654Z,520.2
2022-07-29T07:14:10.313Z,520.1
2022-07-29T07:15:11.972Z,520.2
2022-07-29T07:16:14.129Z,520.1
2022-07-29T07:17:15.776Z,520.1
2022-07-29T07:18:17.494Z,519.9
2022-07-29T07:19:19.055Z,520.2
2022-07-29T07:20:20.791Z,520.2
2022-07-29T07:21:22.535Z,520.2
2022-07-29T07:22:24.173Z,520
2022-07-29T07:23:26.007Z,520.1
2022-07-29T07:24:27.588Z,519.7
2022-07-29T07:25:29.124Z,520.6
2022-07-29T07:26:30.753Z,519.9
2022-07-29T07:27:32.610Z,520.4
2022-07-29T07:28:37.209Z,520.2
2022-07-29T07:29:38.867Z,519.8
2022-07-29T07:30:40.469Z,520.6
2022-07-29T07:31:42.395Z,520.8
2022-07-29T07:32:43.985Z,520.7
2022-07-29T07:33:45.528Z,520.8
2022-07-29T07:34:47.061Z,520.9
2022-07-29T07:35:48.739Z,521.1
2022-07-29T07:36:50.576Z,520.8
2022-07-29T07:37:52.257Z,521.2
2022-07-29T07:38:53.902Z,521
2022-07-29T07:39:55.613Z,521
2022-07-29T07:40:57.258Z,521.4
2022-07-29T07:41:59.107Z,521.4
2022-07-29T07:43:00.989Z,521.3
2022-07-29T07:44:02.614Z,521.4
2022-07-29T07:45:17.151Z,521.7
2022-07-29T07:46:19.243Z,521.7
2022-07-29T07:47:23.920Z,521.4
2022-07-29T07:48:25.730Z,521.1
2022-07-29T07:49:27.801Z,521.3
2022-07-29T07:50:29.995Z,521.4
2022-07-29T07:51:31.730Z,521.2
2022-07-29T07:52:33.581Z,521.4
2022-07-29T07:53:35.193Z,521.9
2022-07-29T07:54:37.155Z,521.4
2022-07-29T07:56:13.241Z,521.3
2022-07-29T07:57:14.856Z,521.6
2022-07-29T07:58:16.723Z,521.4
2022-07-29T07:59:18.268Z,521.2
2022-07-29T08:00:24.327Z,521.6
2022-07-29T08:01:26.527Z,521.3
2022-07-29T08:02:28.670Z,521.5
2022-07-29T08:03:30.417Z,521.4
2022-07-29T08:04:31.988Z,521.4
2022-07-29T08:05:39.510Z,521.2
2022-07-29T08:06:41.069Z,521.5
2022-07-29T08:07:42.643Z,521.7
2022-07-29T08:08:44.311Z,521.5
2022-07-29T08:09:45.999Z,521.5
2022-07-29T08:10:47.853Z,521.6
2022-07-29T08:11:52.984Z,521.2
2022-07-29T08:12:54.643Z,521.2
2022-07-29T08:13:56.456Z,521.6
2022-07-29T08:14:58.320Z,521.3
2022-07-29T08:15:59.989Z,521.7
2022-07-29T08:17:02.273Z,522
2022-07-29T08:18:09.376Z,522
2022-07-29T08:19:11.097Z,521.9
2022-07-29T08:20:12.724Z,522.1
2022-07-29T08:21:16.080Z,522.2
2022-07-29T08:22:17.933Z,522.2
2022-07-29T08:23:19.558Z,522
2022-07-29T08:24:21.230Z,522.3
2022-07-29T08:25:22.846Z,522.7
2022-07-29T08:26:24.537Z,522.7
2022-07-29T08:27:44.903Z,522.6
2022-07-29T08:28:46.816Z,523.1
2022-07-29T08:29:48.612Z,523
2022-07-29T08:30:52.112Z,523.4
2022-07-29T08:31:55.552Z,523.8
2022-07-29T08:32:57.692Z,523.9
2022-07-29T08:33:59.400Z,523.3
2022-07-29T08:35:00.937Z,523
2022-07-29T08:36:03.279Z,522.5
2022-07-29T08:37:05.023Z,522.9
2022-07-29T08:38:06.770Z,522.8
2022-07-29T08:39:08.386Z,523
2022-07-29T08:40:10.107Z,522.9
2022-07-29T08:41:11.792Z,523
2022-07-29T08:42:13.553Z,523.2
2022-07-29T08:43:15.414Z,523.2
2022-07-29T08:44:31.622Z,523.3
2022-07-29T08:45:33.679Z,523.2
2022-07-29T08:46:35.671Z,523.1
2022-07-29T08:47:37.252Z,522.9
2022-07-29T08:48:39.244Z,523.5
2022-07-29T08:49:41.079Z,523
2022-07-29T08:50:47.564Z,523.1
2022-07-29T08:51:50.306Z,523.1
2022-07-29T08:53:00.445Z,523.5
2022-07-29T08:54:02.173Z,523.5
2022-07-29T08:55:03.901Z,523.4
2022-07-29T08:56:05.651Z,523.3
2022-07-29T08:57:09.489Z,523.4
2022-07-29T08:58:16.224Z,523.5
2022-07-29T08:59:22.980Z,523.5
2022-07-29T09:00:24.633Z,523.7
2022-07-29T09:01:45.685Z,523.9
2022-07-29T09:02:48.746Z,523.2
2022-07-29T09:03:51.017Z,523.8
2022-07-29T09:04:52.708Z,523.9
2022-07-29T09:05:54.564Z,524.1
2022-07-29T09:06:56.317Z,524.1
2022-07-29T09:07:58.054Z,524.2
2022-07-29T09:08:59.801Z,524.4
2022-07-29T09:10:01.553Z,524.1
2022-07-29T09:11:06.163Z,524.3
2022-07-29T09:12:07.936Z,524.1
2022-07-29T09:13:09.499Z,523.8
2022-07-29T09:14:11.042Z,523.9
2022-07-29T09:15:12.692Z,524.1
2022-07-29T09:17:01.670Z,524.1
2022-07-29T09:18:03.586Z,524.1
2022-07-29T09:19:05.407Z,524.4
2022-07-29T09:20:07.077Z,524.5
2022-07-29T09:21:08.730Z,524.4
2022-07-29T09:22:10.382Z,523.8
2022-07-29T09:23:25.193Z,524
2022-07-29T09:24:26.872Z,524.3
2022-07-29T09:25:28.410Z,524.3
2022-07-29T09:26:30.042Z,524.1
2022-07-29T09:27:31.597Z,524.1
2022-07-29T09:28:33.413Z,524
2022-07-29T09:29:40.158Z,524.1
2022-07-29T09:30:41.760Z,524.5
2022-07-29T09:31:43.838Z,524.2
2022-07-29T09:32:45.628Z,524.3
2022-07-29T09:33:47.181Z,524.6
2022-07-29T09:34:48.726Z,524.7
2022-07-29T09:35:58.757Z,524.7
2022-07-29T09:37:00.447Z,524.9
2022-07-29T09:38:02.255Z,525
2022-07-29T09:39:03.878Z,525.1
2022-07-29T09:40:12.306Z,524.9
2022-07-29T09:41:14.005Z,524.9
2022-07-29T09:42:17.348Z,525.2
2022-07-29T09:43:20.142Z,524.8
2022-07-29T09:44:21.794Z,524.9
2022-07-29T09:45:23.415Z,524.8
2022-07-29T09:46:25.400Z,525.3
2022-07-29T09:47:27.298Z,525.4
2022-07-29T09:48:29.205Z,525.7
2022-07-29T09:49:30.925Z,525.7
2022-07-29T09:50:32.589Z,526
2022-07-29T09:51:39.411Z,526.1
2022-07-29T09:52:40.993Z,526.1
2022-07-29T09:53:42.802Z,526.2
2022-07-29T09:54:45.268Z,526
2022-07-29T09:55:46.846Z,526.4
2022-07-29T09:56:48.471Z,526.2
2022-07-29T09:57:50.101Z,526.7
2022-07-29T09:58:51.639Z,526.7
2022-07-29T09:59:53.183Z,526.6
2022-07-29T10:00:55.173Z,526.9
2022-07-29T10:01:58.797Z,526.9
2022-07-29T10:03:01.105Z,527
2022-07-29T10:04:02.880Z,526.9
2022-07-29T10:05:04.512Z,526.5
2022-07-29T10:06:06.156Z,527.1
2022-07-29T10:07:07.770Z,526.9
2022-07-29T10:08:10.558Z,526.7
2022-07-29T10:09:12.131Z,527.4
2022-07-29T10:10:13.851Z,527.7
2022-07-29T10:11:15.512Z,528.1
2022-07-29T10:12:17.067Z,528.2
2022-07-29T10:13:18.656Z,528
2022-07-29T10:14:20.335Z,528.2
2022-07-29T10:15:21.992Z,528.1
2022-07-29T10:16:24.077Z,528.6
2022-07-29T10:17:25.655Z,528.8
2022-07-29T10:18:27.196Z,528.2
2022-07-29T10:19:28.845Z,528.6
2022-07-29T10:20:30.529Z,528.3
2022-07-29T10:21:37.258Z,528.3
2022-07-29T10:22:55.078Z,528.4
2022-07-29T10:24:02.150Z,529.1
2022-07-29T10:25:03.808Z,529.2
2022-07-29T10:26:05.377Z,529
2022-07-29T10:27:06.968Z,529
2022-07-29T10:28:12.146Z,529.1
2022-07-29T10:29:16.028Z,529.3
2022-07-29T10:30:17.691Z,528.9
2022-07-29T10:31:19.552Z,529.4
2022-07-29T10:32:21.165Z,529.5
2022-07-29T10:33:22.834Z,529.4
2022-07-29T10:34:24.567Z,529.2
2022-07-29T10:35:26.208Z,529.6
2022-07-29T10:36:27.976Z,529.4
2022-07-29T10:37:46.148Z,529.7
2022-07-29T10:38:48.656Z,529.6
2022-07-29T10:39:50.559Z,530.1
2022-07-29T10:40:58.169Z,530.1
2022-07-29T10:42:00.119Z,529.7
2022-07-29T10:43:01.767Z,530.1
2022-07-29T10:44:03.353Z,529.9
2022-07-29T10:45:05.485Z,530
2022-07-29T10:46:10.927Z,530.5
2022-07-29T10:47:14.019Z,530.2
2022-07-29T10:48:15.956Z,530.3
2022-07-29T10:49:18.869Z,530.5
2022-07-29T10:50:20.568Z,530.7
2022-07-29T10:51:22.233Z,530.9
2022-07-29T10:52:30.723Z,531
2022-07-29T10:53:35.439Z,531.4
2022-07-29T10:54:37.381Z,531.4
2022-07-29T10:55:39.019Z,531.2
2022-07-29T10:56:40.798Z,532
2022-07-29T10:57:58.002Z,531.8
2022-07-29T10:59:00.153Z,532.3
2022-07-29T11:00:04.870Z,532.2
2022-07-29T11:01:08.857Z,532.1
2022-07-29T11:02:45.206Z,531.7
2022-07-29T11:18:47.328Z,532.1
2022-07-29T11:19:52.875Z,533
2022-07-29T11:20:54.586Z,533
2022-07-29T11:21:59.088Z,533.2
2022-07-29T11:23:01.200Z,532.7
2022-07-29T11:24:03.064Z,532.8
2022-07-29T11:25:08.032Z,533.3
2022-07-29T11:26:09.648Z,533.3
2022-07-29T11:27:13.656Z,533.5
2022-07-29T11:28:25.854Z,533.1
2022-07-29T11:29:29.523Z,533.7
2022-07-29T11:30:31.081Z,534.4
2022-07-29T11:31:34.888Z,533.6
2022-07-29T11:32:37.347Z,534
2022-07-29T11:34:05.794Z,534.2
2022-07-29T11:35:39.624Z,534
2022-07-29T11:36:43.905Z,534.7
2022-07-29T11:52:50.503Z,534.4
2022-07-29T11:53:53.248Z,535.2
2022-07-29T12:07:08.730Z,535.2
2022-07-29T12:08:15.366Z,534.9
2022-07-29T12:09:17.137Z,535.3
2022-07-29T12:10:31.357Z,535
2022-07-29T12:11:35.117Z,535.2
2022-07-29T12:12:38.592Z,535.4
2022-07-29T12:13:40.306Z,534.7
2022-07-29T12:14:41.951Z,535.4
2022-07-29T12:15:48.745Z,535.6
2022-07-29T12:16:51.812Z,535.3
2022-07-29T12:17:54.015Z,535.6
2022-07-29T12:18:55.596Z,535.8
2022-07-29T12:19:57.427Z,535.4
2022-07-29T12:21:04.147Z,535.4
2022-07-29T12:22:06.946Z,535.5
2022-07-29T12:23:10.230Z,535.3
2022-07-29T12:24:11.923Z,535.6
2022-07-29T12:25:35.637Z,535.1
2022-07-29T12:26:37.489Z,535.5
2022-07-29T12:27:41.078Z,535.5
2022-07-29T12:28:48.152Z,535.6
2022-07-29T12:29:51.028Z,535.8
2022-07-29T12:30:52.784Z,535.9
2022-07-29T12:31:59.288Z,536
2022-07-29T12:33:01.489Z,535.9
2022-07-29T12:34:03.264Z,535.7
2022-07-29T12:35:06.834Z,535.8
2022-07-29T12:36:18.317Z,535.8
2022-07-29T12:37:43.072Z,535.7
2022-07-29T12:38:45.048Z,536.3
2022-07-29T12:39:46.798Z,536.4
2022-07-29T12:40:48.420Z,536.8
2022-07-29T12:41:49.966Z,536.6
2022-07-29T12:42:51.756Z,536.6
2022-07-29T12:43:53.514Z,536.3
2022-07-29T12:44:55.117Z,536.5
2022-07-29T12:45:56.728Z,536.7
2022-07-29T12:46:58.760Z,536.7
2022-07-29T12:48:00.378Z,537.2
2022-07-29T12:49:04.887Z,537
2022-07-29T12:50:06.550Z,537.1
2022-07-29T12:51:08.138Z,536.8
2022-07-29T12:52:09.682Z,537
2022-07-29T12:53:11.283Z,537.3
2022-07-29T12:54:13.050Z,537.2
2022-07-29T12:55:14.595Z,537.4
2022-07-29T12:56:45.685Z,537.3
2022-07-29T12:57:47.354Z,537.5
2022-07-29T12:58:52.000Z,537.6
2022-07-29T12:59:56.468Z,537.6
2022-07-29T13:00:58.437Z,538.1
2022-07-29T13:02:02.158Z,538.1
2022-07-29T13:03:08.276Z,538.1
2022-07-29T13:04:09.986Z,538.1
2022-07-29T13:05:11.802Z,538.3
2022-07-29T13:06:13.336Z,538.5
2022-07-29T13:07:17.400Z,538.5
2022-07-29T13:08:23.537Z,538.6
2022-07-29T13:09:25.132Z,538.5
2022-07-29T13:10:26.774Z,538.6
2022-07-29T13:11:28.354Z,538.7
2022-07-29T13:12:29.980Z,538.1
2022-07-29T13:13:31.702Z,538.3
2022-07-29T13:14:33.242Z,538.3
2022-07-29T13:15:34.979Z,538.1
2022-07-29T13:16:37.069Z,538.1
2022-07-29T13:17:48.181Z,538.4
2022-07-29T13:18:49.717Z,538.6
2022-07-29T13:19:51.252Z,538.9
2022-07-29T13:20:52.867Z,538.7
2022-07-29T13:21:54.780Z,539.5
2022-07-29T13:22:56.729Z,539.1
2022-07-29T13:23:58.376Z,539.5
2022-07-29T13:25:00.020Z,539.5
2022-07-29T13:26:01.689Z,540.1
2022-07-29T13:27:06.192Z,539.9
2022-07-29T13:28:07.934Z,539.9
2022-07-29T13:29:09.550Z,540.2
2022-07-29T13:30:11.133Z,540
2022-07-29T13:31:13.297Z,540.3
2022-07-29T13:32:14.937Z,540.3
2022-07-29T13:33:16.744Z,540.3
2022-07-29T13:34:18.372Z,540.5
2022-07-29T13:35:20.020Z,540.2
2022-07-29T13:36:21.613Z,540.2
2022-07-29T13:37:23.266Z,540.3
2022-07-29T13:38:31.906Z,540.3
2022-07-29T13:39:33.455Z,540.1
2022-07-29T13:40:35.008Z,540.4
2022-07-29T13:41:37.544Z,540.4
2022-07-29T13:42:39.168Z,540.6
2022-07-29T13:43:41.270Z,540.7
2022-07-29T13:44:43.153Z,540.5
2022-07-29T13:45:45.124Z,540.6
2022-07-29T13:46:46.770Z,541.2
2022-07-29T13:47:49.949Z,540.6
2022-07-29T13:48:51.849Z,540.7
2022-07-29T13:49:53.671Z,541.3
2022-07-29T13:50:55.194Z,541.1
2022-07-29T13:51:58.032Z,541.1
2022-07-29T13:52:59.759Z,541.2
2022-07-29T13:54:01.307Z,540.9
2022-07-29T13:55:04.283Z,541.3
2022-07-29T13:56:08.700Z,541
2022-07-29T13:57:10.280Z,541.2
2022-07-29T13:58:11.939Z,540.8
2022-07-29T13:59:13.745Z,541.2
2022-07-29T14:00:15.395Z,540.8
2022-07-29T14:01:17.288Z,541
2022-07-29T14:02:19.100Z,541.1
2022-07-29T14:03:20.724Z,540.5
2022-07-29T14:04:22.735Z,540.8
2022-07-29T14:05:24.308Z,540.5
2022-07-29T14:06:25.852Z,540.8
2022-07-29T14:07:27.372Z,540.5
2022-07-29T14:08:29.039Z,540.5
2022-07-29T14:09:42.227Z,540.5
2022-07-29T14:10:43.913Z,540.7
2022-07-29T14:11:45.617Z,540.6
2022-07-29T14:12:47.247Z,540.3
2022-07-29T14:13:49.385Z,540.6
2022-07-29T14:14:50.963Z,540.5
2022-07-29T14:15:52.612Z,540.5
2022-07-29T14:16:54.751Z,540.5
2022-07-29T14:17:56.478Z,540.8
2022-07-29T14:18:58.154Z,540.7
2022-07-29T14:19:59.809Z,540.2